createdAt,value
2023-11-13T00:00:49.703Z,12.05
2023-11-13T00:03:13.155Z,10.60
2023-11-13T00:05:37.141Z,11.20
2023-11-13T00:08:00.422Z,10.75
2023-11-13T00:10:23.832Z,10.50
2023-11-13T00:12:47.604Z,10.60
2023-11-13T00:15:13.109Z,10.20
2023-11-13T00:17:36.535Z,11.15
2023-11-13T00:20:00.330Z,11.43
2023-11-13T00:22:23.798Z,11.68
2023-11-13T00:24:47.456Z,11.23
2023-11-13T00:27:10.693Z,11.40
2023-11-13T00:29:34.174Z,11.38
2023-11-13T00:31:59.031Z,10.63
2023-11-13T00:34:22.335Z,10.60
2023-11-13T00:36:52.512Z,10.90
2023-11-13T00:39:15.932Z,10.15
2023-11-13T00:41:42.185Z,10.45
2023-11-13T00:44:07.652Z,10.82
2023-11-13T00:46:31.014Z,10.88
2023-11-13T00:48:56.128Z,10.85
2023-11-13T00:51:19.448Z,11.90
2023-11-13T00:53:42.828Z,11.18
2023-11-13T00:56:07.673Z,11.25
2023-11-13T00:58:31.123Z,11.25
2023-11-13T01:00:54.560Z,10.10
2023-11-13T01:03:18.385Z,10.48
2023-11-13T01:05:43.720Z,11.10
2023-11-13T01:08:07.177Z,10.93
2023-11-13T01:10:30.983Z,10.77
2023-11-13T01:12:54.592Z,10.23
2023-11-13T01:15:18.493Z,10.98
2023-11-13T01:17:42.171Z,10.45
2023-11-13T01:20:07.303Z,9.80
2023-11-13T01:22:32.500Z,9.30
2023-11-13T01:24:56.542Z,10.43
2023-11-13T01:27:20.692Z,10.82
2023-11-13T01:29:44.176Z,10.80
2023-11-13T01:32:07.947Z,9.15
2023-11-13T01:34:31.256Z,10.32
2023-11-13T01:36:55.422Z,9.88
2023-11-13T01:39:20.176Z,10.05
2023-11-13T01:41:45.192Z,9.88
2023-11-13T01:44:10.177Z,9.48
2023-11-13T01:46:35.054Z,10.05
2023-11-13T01:48:59.042Z,9.63
2023-11-13T01:51:22.851Z,9.77
2023-11-13T01:53:46.446Z,10.27
2023-11-13T01:56:11.663Z,10.20
2023-11-13T01:58:36.144Z,9.52
2023-11-13T02:01:00.151Z,9.15
2023-11-13T02:03:24.809Z,9.65
2023-11-13T02:05:49.249Z,9.25
2023-11-13T02:08:13.001Z,9.27
2023-11-13T02:10:37.105Z,9.75
2023-11-13T02:13:02.468Z,9.43
2023-11-13T02:15:25.810Z,9.60
2023-11-13T02:18:02.708Z,9.77
2023-11-13T02:20:26.427Z,9.18
2023-11-13T02:22:49.954Z,7.70
2023-11-13T02:25:17.427Z,8.38
2023-11-13T02:27:42.498Z,9.02
2023-11-13T02:30:09.463Z,8.80
2023-11-13T02:32:32.775Z,9.02
2023-11-13T02:34:56.870Z,8.07
2023-11-13T02:37:20.924Z,8.43
2023-11-13T02:39:44.900Z,8.88
2023-11-13T02:42:10.620Z,8.15
2023-11-13T02:44:33.886Z,8.88
2023-11-13T02:46:58.049Z,8.90
2023-11-13T02:49:22.276Z,8.73
2023-11-13T02:51:45.569Z,8.27
2023-11-13T02:54:09.368Z,8.70
2023-11-13T02:56:32.610Z,8.27
2023-11-13T02:58:58.532Z,7.80
2023-11-13T03:01:22.526Z,7.65
2023-11-13T03:03:46.684Z,8.48
2023-11-13T03:06:10.458Z,8.45
2023-11-13T03:08:33.701Z,7.43
2023-11-13T03:10:57.356Z,6.63
2023-11-13T03:13:21.906Z,7.53
2023-11-13T03:15:46.749Z,6.95
2023-11-13T03:18:13.183Z,7.30
2023-11-13T03:20:36.589Z,7.15
2023-11-13T03:23:00.207Z,6.60
2023-11-13T03:25:24.184Z,6.43
2023-11-13T03:27:49.075Z,6.80
2023-11-13T03:30:14.848Z,7.18
2023-11-13T03:32:39.796Z,7.70
2023-11-13T03:35:04.036Z,7.07
2023-11-13T03:37:28.584Z,7.25
2023-11-13T03:39:51.858Z,7.25
2023-11-13T03:42:15.294Z,7.70
2023-11-13T03:44:38.722Z,8.25
2023-11-13T03:47:02.165Z,7.90
2023-11-13T03:49:27.275Z,8.10
2023-11-13T03:51:50.636Z,8.80
2023-11-13T03:54:13.905Z,8.70
2023-11-13T03:56:37.434Z,9.10
2023-11-13T03:59:00.872Z,8.45
2023-11-13T04:01:24.288Z,9.10
2023-11-13T04:03:49.619Z,8.95
2023-11-13T04:06:14.775Z,9.30
2023-11-13T04:08:38.189Z,9.23
2023-11-13T04:11:05.183Z,9.27
2023-11-13T04:13:30.284Z,9.05
2023-11-13T04:15:53.947Z,10.13
2023-11-13T04:18:18.265Z,8.95
2023-11-13T04:20:41.716Z,9.82
2023-11-13T04:23:06.704Z,9.48
2023-11-13T04:25:30.017Z,11.55
2023-11-13T04:27:53.410Z,10.52
2023-11-13T04:30:17.069Z,9.77
2023-11-13T04:32:40.736Z,10.90
2023-11-13T04:35:04.228Z,11.23
2023-11-13T04:37:27.676Z,11.40
2023-11-13T04:39:52.592Z,11.05
2023-11-13T04:42:16.375Z,11.40
2023-11-13T04:44:40.151Z,11.55
2023-11-13T04:47:03.486Z,10.95
2023-11-13T04:49:26.805Z,12.70
2023-11-13T04:51:50.224Z,11.98
2023-11-13T04:54:13.905Z,12.82
2023-11-13T04:56:40.118Z,13.65
2023-11-13T04:59:04.423Z,13.52
2023-11-13T05:01:28.068Z,13.32
2023-11-13T05:03:52.285Z,14.43
2023-11-13T05:06:16.701Z,13.60
2023-11-13T05:08:40.145Z,13.45
2023-11-13T05:11:03.945Z,14.65
2023-11-13T05:13:29.219Z,13.40
2023-11-13T05:15:52.935Z,15.50
2023-11-13T05:18:16.401Z,14.75
2023-11-13T05:20:44.537Z,15.63
2023-11-13T05:23:08.523Z,15.63
2023-11-13T05:25:32.153Z,17.05
2023-11-13T05:27:55.409Z,16.83
2023-11-13T05:30:22.084Z,16.85
2023-11-13T05:32:45.763Z,16.45
2023-11-13T05:35:10.320Z,17.35
2023-11-13T05:37:33.626Z,16.98
2023-11-13T05:39:57.122Z,17.27
2023-11-13T05:42:24.347Z,18.15
2023-11-13T05:44:48.082Z,18.42
2023-11-13T05:47:13.044Z,19.80
2023-11-13T05:49:36.860Z,18.30
2023-11-13T05:52:01.087Z,20.40
2023-11-13T05:54:25.866Z,20.63
2023-11-13T05:56:49.262Z,18.52
2023-11-13T05:59:12.526Z,19.90
2023-11-13T06:01:35.953Z,18.65
2023-11-13T06:04:01.117Z,18.10
2023-11-13T06:06:25.881Z,18.85
2023-11-13T06:08:49.258Z,18.83
2023-11-13T06:11:13.126Z,21.20
2023-11-13T06:13:37.240Z,17.67
2023-11-13T06:16:01.035Z,18.52
2023-11-13T06:18:24.908Z,18.08
2023-11-13T06:20:50.509Z,20.60
2023-11-13T06:23:14.252Z,16.92
2023-11-13T06:25:37.795Z,19.05
2023-11-13T06:28:01.167Z,18.48
2023-11-13T06:30:24.681Z,17.50
2023-11-13T06:32:49.266Z,16.30
2023-11-13T06:35:13.456Z,16.15
2023-11-13T06:37:38.109Z,17.25
2023-11-13T06:40:01.659Z,16.02
2023-11-13T06:42:24.914Z,14.88
2023-11-13T06:44:49.258Z,15.63
2023-11-13T06:47:12.784Z,15.13
2023-11-13T06:49:39.862Z,16.08
2023-11-13T06:52:04.283Z,15.10
2023-11-13T06:54:29.896Z,14.93
2023-11-13T06:56:53.282Z,15.95
2023-11-13T06:59:16.918Z,14.77
2023-11-13T07:01:42.457Z,14.02
2023-11-13T07:04:07.116Z,14.25
2023-11-13T07:06:30.852Z,14.55
2023-11-13T07:08:55.725Z,15.65
2023-11-13T07:11:23.444Z,14.48
2023-11-13T07:13:48.763Z,15.18
2023-11-13T07:16:12.123Z,13.93
2023-11-13T07:18:35.956Z,13.95
2023-11-13T07:20:59.778Z,14.45
2023-11-13T07:23:23.162Z,14.15
2023-11-13T07:25:46.787Z,13.15
2023-11-13T07:28:11.862Z,15.77
2023-11-13T07:30:35.772Z,13.38
2023-11-13T07:32:59.249Z,13.82
2023-11-13T07:35:23.339Z,13.98
2023-11-13T07:37:46.834Z,12.45
2023-11-13T07:40:14.653Z,13.25
2023-11-13T07:42:39.151Z,12.50
2023-11-13T07:45:04.802Z,13.48
2023-11-13T07:47:28.992Z,13.23
2023-11-13T07:49:52.851Z,12.30
2023-11-13T07:52:16.965Z,11.95
2023-11-13T07:54:40.165Z,12.80
2023-11-13T07:57:05.130Z,12.02
2023-11-13T07:59:28.714Z,10.73
2023-11-13T08:01:54.940Z,10.73
2023-11-13T08:04:18.645Z,11.43
2023-11-13T08:06:42.019Z,11.35
2023-11-13T08:09:09.416Z,11.77
2023-11-13T08:11:33.164Z,9.57
2023-11-13T08:13:57.002Z,9.93
2023-11-13T08:16:20.792Z,10.73
2023-11-13T08:18:45.796Z,10.05
2023-11-13T08:21:11.697Z,12.45
2023-11-13T08:23:35.600Z,9.05
2023-11-13T08:26:01.702Z,10.05
2023-11-13T08:28:25.740Z,8.60
2023-11-13T08:30:49.398Z,9.23
2023-11-13T08:33:14.082Z,9.63
2023-11-13T08:35:39.891Z,7.68
2023-11-13T08:38:03.597Z,8.70
2023-11-13T08:40:27.837Z,8.18
2023-11-13T08:42:51.188Z,7.65
2023-11-13T08:45:17.192Z,8.80
2023-11-13T08:47:42.004Z,8.38
2023-11-13T08:50:08.239Z,8.85
2023-11-13T08:52:33.651Z,8.18
2023-11-13T08:54:58.911Z,8.52
2023-11-13T08:57:25.566Z,7.95
2023-11-13T08:59:49.654Z,8.77
2023-11-13T09:02:14.825Z,7.57
2023-11-13T09:04:38.957Z,7.80
2023-11-13T09:07:08.829Z,7.07
2023-11-13T09:09:33.865Z,7.53
2023-11-13T09:11:57.601Z,8.30
2023-11-13T09:14:23.744Z,7.63
2023-11-13T09:16:47.276Z,6.63
2023-11-13T09:19:11.552Z,7.07
2023-11-13T09:21:35.619Z,7.13
2023-11-13T09:23:59.133Z,7.18
2023-11-13T09:26:23.786Z,6.97
2023-11-13T09:28:47.612Z,6.20
2023-11-13T09:31:12.169Z,6.40
2023-11-13T09:33:35.974Z,7.07
2023-11-13T09:36:00.523Z,5.22
2023-11-13T09:38:24.786Z,5.78
2023-11-13T09:40:48.148Z,6.40
2023-11-13T09:43:20.414Z,5.30
2023-11-13T09:45:52.426Z,5.57
2023-11-13T09:48:21.475Z,5.38
2023-11-13T09:50:46.080Z,5.18
2023-11-13T09:53:11.003Z,5.15
2023-11-13T09:55:36.346Z,4.18
2023-11-13T09:58:02.251Z,4.90
2023-11-13T10:00:31.611Z,4.03
2023-11-13T10:02:56.962Z,4.82
2023-11-13T10:05:22.371Z,3.38
2023-11-13T10:07:49.829Z,3.38
2023-11-13T10:10:19.251Z,4.00
2023-11-13T10:12:43.234Z,3.75
2023-11-13T10:15:13.943Z,3.80
2023-11-13T10:17:47.991Z,4.35
2023-11-13T10:20:12.774Z,4.82
2023-11-13T10:22:36.077Z,4.40
2023-11-13T10:24:59.919Z,4.88
2023-11-13T10:27:23.754Z,5.25
2023-11-13T10:29:47.682Z,5.32
2023-11-13T10:32:11.819Z,5.43
2023-11-13T10:34:47.767Z,5.80
2023-11-13T10:37:13.645Z,6.18
2023-11-13T10:39:38.738Z,6.00
2023-11-13T10:42:03.403Z,5.38
2023-11-13T10:44:28.853Z,5.97
2023-11-13T10:46:52.516Z,6.07
2023-11-13T10:49:17.094Z,5.93
2023-11-13T10:51:43.732Z,6.30
2023-11-13T10:54:10.016Z,6.97
2023-11-13T10:56:35.846Z,6.85
2023-11-13T10:59:00.558Z,7.28
2023-11-13T11:01:30.264Z,6.22
2023-11-13T11:04:00.144Z,6.75
2023-11-13T11:06:26.084Z,6.72
2023-11-13T11:08:52.632Z,5.47
2023-11-13T11:11:16.827Z,6.18
2023-11-13T11:13:45.947Z,5.93
2023-11-13T11:16:30.785Z,5.22
2023-11-13T11:19:03.841Z,5.00
2023-11-13T11:21:44.784Z,5.43
2023-11-13T11:24:15.671Z,4.53
2023-11-13T11:26:55.949Z,4.13
2023-11-13T11:29:34.787Z,4.15
2023-11-13T11:31:58.400Z,4.93
2023-11-13T11:34:24.876Z,4.28
2023-11-13T11:36:49.868Z,4.55
2023-11-13T11:39:19.974Z,3.65
2023-11-13T11:41:44.891Z,4.20
2023-11-13T11:44:12.765Z,3.83
2023-11-13T11:46:42.714Z,4.28
2023-11-13T11:49:06.626Z,3.67
2023-11-13T11:51:29.824Z,3.97
2023-11-13T11:53:59.615Z,4.00
2023-11-13T11:56:24.923Z,3.45
2023-11-13T11:58:48.480Z,4.07
2023-11-13T12:01:12.595Z,4.13
2023-11-13T12:03:36.046Z,4.00
2023-11-13T12:05:59.718Z,3.90
2023-11-13T12:08:23.140Z,4.15
2023-11-13T12:10:47.113Z,4.20
2023-11-13T12:13:11.912Z,4.38
2023-11-13T12:15:35.625Z,4.35
2023-11-13T12:17:59.044Z,4.47
2023-11-13T12:20:24.341Z,4.75
2023-11-13T12:22:49.088Z,5.00
2023-11-13T12:25:15.607Z,5.22
2023-11-13T12:27:40.681Z,4.53
2023-11-13T12:30:08.677Z,4.80
2023-11-13T12:32:33.592Z,5.38
2023-11-13T12:34:58.060Z,5.13
2023-11-13T12:37:22.142Z,4.97
2023-11-13T12:39:47.481Z,5.00
2023-11-13T12:42:10.964Z,4.47
2023-11-13T12:44:36.016Z,4.90
2023-11-13T12:47:01.045Z,4.82
2023-11-13T12:49:26.779Z,4.75
2023-11-13T12:51:51.429Z,5.28
2023-11-13T12:54:16.697Z,5.68
2023-11-13T12:56:44.676Z,5.57
2023-11-13T12:59:09.321Z,5.30
2023-11-13T13:01:33.567Z,4.63
2023-11-13T13:03:59.823Z,5.20
2023-11-13T13:06:23.749Z,5.22
2023-11-13T13:08:54.661Z,5.43
2023-11-13T13:11:18.679Z,5.53
2023-11-13T13:13:49.995Z,4.50
2023-11-13T13:16:20.635Z,4.72
2023-11-13T13:18:46.513Z,5.40
2023-11-13T13:21:11.517Z,4.85
2023-11-13T13:23:36.406Z,4.30
2023-11-13T13:26:04.370Z,4.10
2023-11-13T13:28:27.675Z,4.45
2023-11-13T13:30:51.815Z,4.45
2023-11-13T13:33:16.318Z,3.75
2023-11-13T13:35:39.854Z,3.15
2023-11-13T13:38:06.419Z,3.30
2023-11-13T13:40:30.451Z,3.35
2023-11-13T13:43:00.093Z,2.97
2023-11-13T13:45:26.434Z,3.03
2023-11-13T13:47:50.814Z,3.30
2023-11-13T13:50:20.770Z,2.70
2023-11-13T13:52:47.755Z,3.30
2023-11-13T13:55:12.683Z,3.22
2023-11-13T13:57:36.004Z,2.65
2023-11-13T14:00:00.361Z,3.00
2023-11-13T14:02:24.621Z,2.70
2023-11-13T14:04:47.992Z,2.42
2023-11-13T14:07:12.248Z,2.38
2023-11-13T14:09:36.367Z,2.55
2023-11-13T14:12:12.592Z,2.80
2023-11-13T14:14:39.005Z,2.42
2023-11-13T14:17:04.690Z,2.53
2023-11-13T14:19:28.048Z,2.30
2023-11-13T14:21:51.789Z,2.28
2023-11-13T14:24:18.185Z,2.30
2023-11-13T14:26:43.118Z,2.13
2023-11-13T14:29:07.810Z,1.83
2023-11-13T14:31:31.792Z,2.13
2023-11-13T14:33:55.442Z,1.77
2023-11-13T14:36:18.941Z,1.98
2023-11-13T14:38:42.117Z,1.35
2023-11-13T14:41:06.235Z,1.30
2023-11-13T14:43:29.999Z,0.90
2023-11-13T14:45:56.650Z,1.10
2023-11-13T14:48:21.943Z,0.90
2023-11-13T14:50:45.927Z,1.20
2023-11-13T14:53:09.777Z,0.85
2023-11-13T14:55:33.406Z,1.02
2023-11-13T14:57:56.875Z,0.80
2023-11-13T15:00:24.700Z,1.20
2023-11-13T15:02:51.781Z,1.17
2023-11-13T15:05:15.482Z,0.93
2023-11-13T15:07:39.003Z,1.00
2023-11-13T15:10:04.957Z,1.15
2023-11-13T15:12:29.481Z,1.10
2023-11-13T15:14:53.692Z,1.20
2023-11-13T15:17:17.036Z,1.45
2023-11-13T15:19:42.822Z,1.50
2023-11-13T15:22:06.759Z,1.30
2023-11-13T15:24:30.497Z,1.20
2023-11-13T15:26:55.537Z,1.13
2023-11-13T15:29:18.977Z,2.13
2023-11-13T15:31:43.113Z,1.45
2023-11-13T15:34:10.359Z,1.70
2023-11-13T15:36:39.754Z,2.20
2023-11-13T15:39:06.113Z,1.55
2023-11-13T15:41:29.924Z,1.70
2023-11-13T15:43:53.547Z,1.40
2023-11-13T15:46:18.358Z,1.65
2023-11-13T15:48:41.777Z,1.83
2023-11-13T15:51:06.215Z,1.50
2023-11-13T15:53:31.801Z,1.65
2023-11-13T15:55:56.581Z,1.80
2023-11-13T15:58:19.859Z,1.80
2023-11-13T16:00:43.496Z,1.50
2023-11-13T16:03:08.350Z,1.98
2023-11-13T16:05:31.789Z,1.65
2023-11-13T16:07:55.102Z,1.67
2023-11-13T16:10:19.769Z,1.75
2023-11-13T16:12:44.480Z,2.00
2023-11-13T16:15:10.016Z,1.52
2023-11-13T16:17:34.002Z,1.67
2023-11-13T16:19:57.673Z,1.90
2023-11-13T16:22:23.249Z,1.85
2023-11-13T16:24:46.596Z,2.03
2023-11-13T16:27:11.425Z,2.05
2023-11-13T16:29:34.752Z,1.95
2023-11-13T16:32:00.926Z,2.40
2023-11-13T16:34:24.477Z,2.35
2023-11-13T16:36:48.538Z,2.20
2023-11-13T16:39:14.201Z,2.13
2023-11-13T16:41:39.033Z,2.00
2023-11-13T16:44:05.091Z,2.42
2023-11-13T16:46:28.524Z,3.17
2023-11-13T16:48:51.948Z,2.65
2023-11-13T16:51:16.616Z,2.65
2023-11-13T16:53:39.872Z,2.83
2023-11-13T16:56:03.822Z,3.00
2023-11-13T16:58:27.983Z,2.50
2023-11-13T17:00:53.450Z,2.85
2023-11-13T17:03:16.690Z,2.90
2023-11-13T17:05:42.103Z,2.63
2023-11-13T17:08:09.461Z,2.65
2023-11-13T17:10:37.141Z,3.65
2023-11-13T17:13:00.613Z,3.08
2023-11-13T17:15:24.056Z,3.47
2023-11-13T17:17:48.784Z,3.67
2023-11-13T17:20:13.496Z,3.85
2023-11-13T17:22:36.925Z,3.45
2023-11-13T17:25:00.333Z,4.10
2023-11-13T17:27:25.278Z,3.90
2023-11-13T17:29:50.242Z,4.20
2023-11-13T17:32:13.685Z,4.32
2023-11-13T17:34:38.464Z,4.05
2023-11-13T17:37:02.012Z,3.78
2023-11-13T17:39:25.419Z,4.10
2023-11-13T17:41:49.402Z,4.55
2023-11-13T17:44:13.507Z,5.10
2023-11-13T17:46:36.791Z,4.60
2023-11-13T17:49:00.201Z,4.53
2023-11-13T17:51:28.932Z,4.43
2023-11-13T17:53:52.653Z,4.53
2023-11-13T17:56:16.170Z,4.55
2023-11-13T17:58:39.555Z,4.32
2023-11-13T18:01:02.840Z,4.68
2023-11-13T18:03:26.332Z,5.00
2023-11-13T18:05:53.835Z,4.60
2023-11-13T18:08:18.795Z,5.13
2023-11-13T18:10:42.980Z,5.05
2023-11-13T18:13:06.620Z,5.78
2023-11-13T18:15:30.826Z,5.07
2023-11-13T18:17:55.079Z,5.68
2023-11-13T18:20:20.200Z,5.25
2023-11-13T18:22:45.689Z,5.53
2023-11-13T18:25:12.000Z,5.47
2023-11-13T18:27:35.497Z,5.55
2023-11-13T18:29:59.522Z,6.53
2023-11-13T18:32:24.228Z,5.80
2023-11-13T18:34:47.754Z,6.57
2023-11-13T18:37:11.926Z,5.80
2023-11-13T18:39:38.890Z,6.50
2023-11-13T18:42:04.115Z,5.82
2023-11-13T18:44:28.307Z,6.95
2023-11-13T18:46:51.816Z,6.65
2023-11-13T18:49:17.150Z,6.30
2023-11-13T18:51:41.330Z,6.50
2023-11-13T18:54:04.777Z,6.10
2023-11-13T18:56:28.562Z,5.93
2023-11-13T18:58:53.442Z,6.88
2023-11-13T19:01:18.837Z,6.82
2023-11-13T19:03:43.738Z,5.88
2023-11-13T19:06:09.002Z,6.40
2023-11-13T19:08:32.313Z,7.65
2023-11-13T19:10:57.164Z,7.53
2023-11-13T19:13:20.792Z,7.82
2023-11-13T19:15:45.757Z,7.57
2023-11-13T19:18:09.243Z,8.15
2023-11-13T19:20:32.527Z,6.85
2023-11-13T19:22:56.611Z,6.60
2023-11-13T19:25:19.969Z,7.63
2023-11-13T19:27:43.692Z,6.68
2023-11-13T19:30:09.747Z,7.32
2023-11-13T19:32:34.744Z,8.20
2023-11-13T19:34:59.286Z,7.60
2023-11-13T19:37:22.651Z,6.93
2023-11-13T19:39:46.066Z,7.53
2023-11-13T19:42:09.462Z,6.88
2023-11-13T19:44:44.017Z,6.90
2023-11-13T19:47:11.562Z,7.55
2023-11-13T19:49:36.601Z,6.70
2023-11-13T19:52:00.482Z,6.32
2023-11-13T19:54:25.478Z,6.55
2023-11-13T19:56:53.657Z,6.65
2023-11-13T19:59:17.722Z,6.72
2023-11-13T20:01:44.248Z,6.22
2023-11-13T20:04:07.968Z,6.63
2023-11-13T20:06:32.808Z,6.72
2023-11-13T20:08:56.402Z,7.00
2023-11-13T20:11:21.329Z,6.43
2023-11-13T20:13:45.469Z,7.47
2023-11-13T20:16:09.894Z,6.63
2023-11-13T20:18:37.003Z,6.15
2023-11-13T20:21:01.209Z,7.45
2023-11-13T20:23:29.985Z,6.00
2023-11-13T20:25:54.465Z,7.05
2023-11-13T20:28:17.746Z,8.15
2023-11-13T20:30:41.430Z,6.70
2023-11-13T20:33:05.044Z,6.50
2023-11-13T20:35:29.443Z,7.00
2023-11-13T20:37:52.892Z,6.45
2023-11-13T20:40:18.506Z,6.18
2023-11-13T20:42:41.957Z,5.82
2023-11-13T20:45:06.727Z,7.25
2023-11-13T20:47:35.924Z,7.10
2023-11-13T20:50:00.788Z,7.45
2023-11-13T20:52:24.447Z,6.72
2023-11-13T20:54:47.831Z,7.22
2023-11-13T20:57:13.208Z,7.38
2023-11-13T20:59:36.585Z,7.18
2023-11-13T21:02:02.777Z,6.43
2023-11-13T21:04:26.214Z,7.30
2023-11-13T21:06:50.931Z,6.57
2023-11-13T21:09:16.663Z,7.00
2023-11-13T21:11:40.277Z,6.75
2023-11-13T21:14:05.698Z,6.78
2023-11-13T21:16:30.440Z,7.43
2023-11-13T21:18:53.816Z,7.25
2023-11-13T21:21:17.226Z,7.20
2023-11-13T21:23:40.903Z,7.28
2023-11-13T21:26:05.370Z,5.90
2023-11-13T21:28:28.839Z,6.93
2023-11-13T21:30:55.620Z,7.18
2023-11-13T21:33:20.655Z,7.03
2023-11-13T21:35:43.924Z,7.10
2023-11-13T21:38:07.236Z,6.82
2023-11-13T21:40:30.690Z,7.20
2023-11-13T21:42:54.944Z,6.43
2023-11-13T21:45:18.793Z,6.70
2023-11-13T21:47:43.983Z,7.35
2023-11-13T21:50:08.888Z,7.30
2023-11-13T21:52:33.070Z,7.50
2023-11-13T21:54:56.492Z,7.05
2023-11-13T21:57:20.054Z,6.88
2023-11-13T21:59:45.365Z,6.40
2023-11-13T22:02:09.211Z,7.25
2023-11-13T22:04:34.255Z,7.05
2023-11-13T22:06:57.533Z,7.00
2023-11-13T22:09:22.193Z,6.95
2023-11-13T22:11:45.710Z,6.13
2023-11-13T22:14:09.015Z,7.57
2023-11-13T22:16:32.530Z,7.35
2023-11-13T22:18:56.088Z,6.47
2023-11-13T22:21:20.729Z,6.72
2023-11-13T22:23:46.131Z,6.95
2023-11-13T22:26:09.635Z,6.25
2023-11-13T22:28:33.460Z,5.95
2023-11-13T22:30:57.067Z,6.65
2023-11-13T22:33:20.591Z,6.78
2023-11-13T22:35:46.713Z,7.00
2023-11-13T22:38:11.507Z,6.78
2023-11-13T22:40:35.480Z,6.13
2023-11-13T22:42:58.809Z,6.45
2023-11-13T22:45:22.831Z,6.25
2023-11-13T22:47:46.152Z,6.28
2023-11-13T22:50:11.564Z,7.40
2023-11-13T22:52:35.767Z,6.75
2023-11-13T22:55:00.432Z,6.63
2023-11-13T22:57:24.215Z,6.28
2023-11-13T22:59:47.838Z,6.90
2023-11-13T23:02:11.420Z,6.93
2023-11-13T23:04:35.677Z,6.90
2023-11-13T23:06:59.413Z,6.85
2023-11-13T23:09:22.956Z,7.07
2023-11-13T23:11:47.813Z,6.35
2023-11-13T23:14:11.484Z,6.13
2023-11-13T23:16:35.047Z,7.07
2023-11-13T23:18:59.253Z,6.90
2023-11-13T23:21:22.589Z,6.57
2023-11-13T23:23:46.309Z,6.55
2023-11-13T23:26:10.436Z,6.88
2023-11-13T23:28:35.183Z,6.57
2023-11-13T23:30:59.535Z,6.78
2023-11-13T23:33:23.200Z,6.40
2023-11-13T23:35:46.619Z,7.00
2023-11-13T23:38:09.868Z,6.38
2023-11-13T23:40:33.555Z,6.78
2023-11-13T23:42:58.685Z,6.47
2023-11-13T23:45:24.317Z,6.25
2023-11-13T23:47:48.472Z,6.82
2023-11-13T23:50:12.668Z,6.93
2023-11-13T23:52:38.660Z,6.90
2023-11-13T23:55:04.237Z,7.30
2023-11-13T23:57:28.254Z,6.68
2023-11-13T23:59:51.672Z,7.38
